但馬空港の過去48時間の天気

但馬空港 (Tajima)

現在時刻: 12/17 01:53 JST (12/16 16:53 UTC) 以下の時間は現地時間です。

過去48時間のMETAR気象情報
時間 風向 風速(m/s) 視程 気温(℃) 湿度(%) 気圧(hPa) 天気現象
16 18:00 西 4 10km以上 5 65 1015 周辺でしゅう雨
16 17:00 西 4 10km以上 5 75 1014 弱いしゅう雨
16 16:00 西南西 4 10km以上 7 61 1014 周辺でしゅう雨
16 15:00 西 3 10km以上 7 66 1014 弱いしゅう雨
16 14:00 南西 4 10km以上 8 57 1014 弱いしゅう雨
16 13:00 西南西 4 10km以上 9 53 1014
16 12:00 西南西 4 10km以上 9 53 1015 周辺でしゅう雨
16 11:00 南西 4 10km以上 9 53 1015
16 10:00 西南西 3 10km以上 8 61 1016
16 09:00 3 10km以上 4 81 1017
16 08:30 南西 3 10km以上 3 87 1017
15 18:00 南南西 3 10km以上 5 70 1020
15 17:00 2 10km以上 6 65 1020
15 16:00 南南東 2 10km以上 7 57 1021
15 15:00 2 10km以上 8 53 1021
15 14:00 南東 2 10km以上 8 46 1021
15 13:00 不定 2 10km以上 8 53 1022
15 12:00 不定 1 10km以上 7 42 1023
15 11:00 不定 1 10km以上 5 75 1024
15 10:00 南南西 2 10km以上 4 93 1025 散在した霧
15 09:43 不定 1 6,000m 3 100 1025 散在した霧
15 09:24 不定 1 2,500m 2 100 1025 散在した霧
15 09:09 不定 1 1,500m 2 100 1025 散在した霧
15 09:00 南西 3 600m 1 100 1025
15 08:30 不定 1 300m 1 100 1025
RJBT 160900Z 28008KT 230V330 9999 VCSH FEW015 SCT025 BKN/// 05/M01 Q1015
RJBT 160800Z 27007KT 210V350 9999 -SHRA FEW015 SCT025 BKN/// 05/01 Q1014
RJBT 160700Z 25007KT 220V300 9999 VCSH FEW020 SCT030 BKN/// 07/00 Q1014
RJBT 160600Z 26006KT 200V310 9999 -SHRA FEW020 SCT030 BKN060 07/01 Q1014
RJBT 160500Z 22007KT 9999 -SHRA FEW020 BKN030 BKN070 08/00 Q1014
RJBT 160400Z 25008KT 220V290 9999 FEW020 SCT030 BKN070 09/M00 Q1014
RJBT 160300Z 25008KT 180V280 9999 VCSH FEW020 SCT030 BKN/// 09/M00 Q1015
RJBT 160200Z 23008KT 9999 FEW025 BKN050 BKN/// 09/M00 Q1015
RJBT 160100Z 24005KT 180V290 9999 FEW025 BKN060 08/01 Q1016
RJBT 160000Z 18005KT 150V220 9999 FEW025 BKN060 04/01 Q1017
RJBT 152330Z 22006KT 9999 FEW025 BKN060 03/01 Q1017
RJBT 150900Z 21006KT 9999 FEW025 BKN/// 05/00 Q1020
RJBT 150800Z 18003KT 9999 FEW025 SCT/// 06/M00 Q1020
RJBT 150700Z 15004KT 120V180 9999 FEW025 SCT/// 07/M01 Q1021
RJBT 150600Z 10003KT 040V150 9999 FEW025 08/M01 Q1021
RJBT 150500Z 14004KT 080V200 9999 FEW025 08/M03 Q1021
RJBT 150400Z VRB03KT 9999 FEW025 SCT035 08/M01 Q1022
RJBT 150300Z VRB01KT 9999 FEW025 SCT/// 07/M05 Q1023
RJBT 150200Z VRB02KT 9999 FEW025 05/01 Q1024
RJBT 150100Z 20003KT 150V230 9999 BCFG FEW000 04/03 Q1025
RJBT 150043Z VRB01KT 6000 BCFG FEW000 03/03 Q1025 RMK 1ST000 A3029 2500NW FG BANK NW-SW
RJBT 150024Z VRB01KT 2500 BCFG FEW000 02/02 Q1025 RMK 1ST000 A3029 FG BANK AROUND
RJBT 150009Z VRB02KT 1500 BCFG FEW000 SCT005 02/02 Q1025 RMK 2ST000 3ST005 A3028 FG ALL QUAD
RJBT 150000Z 22005KT 0600 FG FEW000 BKN005 01/01 Q1025
RJBT 142330Z VRB01KT 0300 FG FEW000 BKN005 01/01 Q1025